createdAt,value
2022-09-07T00:07:59.393Z,3.03
2022-09-07T00:23:01.630Z,2.50
2022-09-07T00:38:03.889Z,2.75
2022-09-07T00:53:10.974Z,2.47
2022-09-07T01:08:13.339Z,2.22
2022-09-07T01:23:36.858Z,1.92
2022-09-07T01:38:41.920Z,2.40
2022-09-07T01:53:47.986Z,2.40
2022-09-07T02:09:00.095Z,2.28
2022-09-07T02:24:08.484Z,2.40
2022-09-07T02:39:10.783Z,2.10
2022-09-07T02:54:28.085Z,2.50
2022-09-07T03:09:32.431Z,2.50
2022-09-07T03:24:34.683Z,2.70
2022-09-07T03:39:37.227Z,2.70
2022-09-07T03:54:39.924Z,2.70
2022-09-07T04:09:42.200Z,2.40
2022-09-07T04:24:44.468Z,2.33
2022-09-07T04:39:46.725Z,2.30
2022-09-07T04:54:50.620Z,2.45
2022-09-07T05:09:52.911Z,2.40
2022-09-07T05:24:55.195Z,2.63
2022-09-07T05:39:58.258Z,3.33
2022-09-07T05:55:19.316Z,2.40
2022-09-07T06:25:49.269Z,2.33
2022-09-07T06:56:15.206Z,2.00
2022-09-07T07:11:17.415Z,1.70
2022-09-07T07:26:21.100Z,1.85
2022-09-07T07:56:48.171Z,2.20
2022-09-07T08:11:50.357Z,2.00
2022-09-07T08:26:52.720Z,1.90
2022-09-07T08:42:23.212Z,2.05
2022-09-07T08:57:29.202Z,1.90
2022-09-07T09:12:55.628Z,1.48
2022-09-07T09:27:58.093Z,2.28
2022-09-07T09:43:21.552Z,2.42
2022-09-07T10:13:55.698Z,2.08
2022-09-07T10:29:23.728Z,2.20
2022-09-07T10:44:44.665Z,2.30
2022-09-07T11:15:16.921Z,1.73
2022-09-07T11:30:23.881Z,1.60
2022-09-07T11:45:33.800Z,1.52
2022-09-07T12:00:48.658Z,1.80
2022-09-07T12:15:53.834Z,1.67
2022-09-07T12:31:05.955Z,1.73
2022-09-07T12:46:19.566Z,1.88
2022-09-07T13:01:44.232Z,1.70
2022-09-07T13:32:21.051Z,1.67
2022-09-07T13:47:41.187Z,1.50
2022-09-07T14:02:43.430Z,1.77
2022-09-07T14:17:45.827Z,1.80
2022-09-07T14:32:48.952Z,1.70
2022-09-07T14:47:55.038Z,1.40
2022-09-07T15:02:57.191Z,1.50
2022-09-07T15:18:06.046Z,1.50
2022-09-07T15:33:11.479Z,1.33
2022-09-07T15:48:18.036Z,1.55
2022-09-07T16:03:20.287Z,1.33
2022-09-07T16:18:23.662Z,1.50
2022-09-07T16:33:34.399Z,1.40
2022-09-07T16:48:38.963Z,1.33
2022-09-07T17:03:41.229Z,2.92
2022-09-07T17:34:05.713Z,3.03
2022-09-07T17:49:09.996Z,1.98
2022-09-07T18:04:13.159Z,1.58
2022-09-07T18:19:15.602Z,1.95
2022-09-07T18:34:17.758Z,1.70
2022-09-07T18:49:20.389Z,1.85
2022-09-07T19:04:22.950Z,1.50
2022-09-07T19:19:26.466Z,1.95
2022-09-07T19:34:28.629Z,1.75
2022-09-07T19:49:30.788Z,1.83
2022-09-07T20:04:32.983Z,1.70
2022-09-07T20:19:35.174Z,1.55
2022-09-07T20:34:37.593Z,1.45
2022-09-07T20:49:39.791Z,1.45
2022-09-07T21:04:42.608Z,1.58
2022-09-07T21:19:44.793Z,1.67
2022-09-07T21:34:46.990Z,1.40
2022-09-07T21:49:49.176Z,1.50
2022-09-07T22:04:51.330Z,2.15
2022-09-07T22:19:53.519Z,2.20
2022-09-07T22:34:55.711Z,1.83
2022-09-07T22:50:00.234Z,2.35
2022-09-07T23:05:03.887Z,2.13
2022-09-07T23:20:06.648Z,1.90
2022-09-07T23:35:11.688Z,1.98
2022-09-07T23:50:15.938Z,1.75
